Nearby METAR Reports

 

KAWO - Arlington Muni, Washington, USA
Distance from station: WSW 26mi, 42km
Updated: Wed, 22-Oct-2014 8:35pm PDT
Overcast
Overcast
 Wind from SSE
Wind: SSE 20 mph , 31 km/h, Gust: 25 mph , 41 km/h
Temperature: 55°F , 13°C
Dew Point: 48°F , 9°C
Humidity: 77%
Barometer: 29.58 inHg , 1001.7 hPa
Clouds: Overcast
Visibility: 10 miles , 16 km
Cloud details: Mostly cloudy 3900 ft
Overcast 4700 ft
2014/10/23 03:35 KAWO 230335Z AUTO 15017G22KT 10SM BKN039 OVC047 13/09 A2958 RMK AO1 P0001
KPAE - Everett, Washington, USA
Distance from station: SW 39mi, 62km
Updated: Wed, 22-Oct-2014 7:53pm PDT
Light rain, Overcast
Light rain, Overcast
 Wind from SSE
Wind: SSE 9 mph , 15 km/h
Temperature: 54°F , 12°C
Dew Point: 52°F , 11°C
Humidity: 94%
Barometer: 29.56 inHg , 1001 hPa
Summary: Light rain
Clouds: Overcast
Visibility: 9 miles , 14 km
Cloud details: Overcast 6000 ft
2014/10/23 02:53 KPAE 230253Z 15008KT 9SM -RA OVC060 12/11 A2956 RMK AO2 RAB11 SLP010 P0005 60011 T01220106 56015
 
KBVS - Burlington/Mt V, Washington, USA
Distance from station: WNW 40mi, 64km
Updated: Wed, 22-Oct-2014 8:30pm PDT
Overcast
Overcast
 Wind from SSE
Wind: SSE 15 mph , 24 km/h, Gust: 23 mph , 37 km/h
Barometer: 29.52 inHg , 999.7 hPa
Clouds: Overcast
Visibility: 10 miles , 16 km
Cloud details: Mostly cloudy 3300 ft
Overcast 4200 ft
2014/10/23 03:30 KBVS 230330Z AUTO 15013G20KT 10SM BKN033 OVC042 A2952 RMK A01 P000
KNUW - Whidbey Is. Nas, Washington, USA
Distance from station: W 48mi, 78km
Updated: Wed, 22-Oct-2014 7:56pm PDT
Overcast
Overcast
 Wind from SE
Wind: SE 22 mph , 35 km/h, Gust: 28 mph , 44 km/h
Temperature: 59°F , 15°C
Dew Point: 52°F , 11°C
Humidity: 77%
Barometer: 29.51 inHg , 999.3 hPa
Clouds: Overcast
Visibility: 10 miles , 16 km
Cloud details: Mostly cloudy 1000 ft
Mostly cloudy 2000 ft
Overcast 4000 ft
2014/10/23 02:56 KNUW 230256Z 14019G24KT 10SM BKN010 BKN020 OVC040 15/11 A2951 RMK AO2 PK WND 14035/0235 SLP997 60003 T01500111 55023
 
KBLI - Bellingham, Washington, USA
Distance from station: NW 57mi, 91km
Updated: Wed, 22-Oct-2014 7:53pm PDT
Overcast
Overcast
 Wind from SE
Wind: SE 18 mph , 30 km/h, Gust: 37 mph , 59 km/h
Temperature: 57°F , 14°C
Dew Point: 48°F , 9°C
Humidity: 72%
Barometer: 29.47 inHg , 998 hPa
Clouds: Overcast
Visibility: 10 miles , 16 km
Cloud details: Mostly cloudy 3700 ft
Overcast 7000 ft
2014/10/23 02:53 KBLI 230253Z 14016G32KT 10SM BKN037 OVC070 14/09 A2947 RMK AO2 PK WND 13032/0244 SLP984 60008 T01440089 58037
KBFI - Seattle/Boeing, Washington, USA
Distance from station: SW 58mi, 94km
Updated: Wed, 22-Oct-2014 7:53pm PDT
Light rain, Overcast
Light rain, Overcast
 Wind from SSE
Wind: SSE 7 mph , 11 km/h
Temperature: 57°F , 14°C
Dew Point: 52°F , 11°C
Humidity: 82%
Barometer: 29.57 inHg , 1001.4 hPa
Summary: Light rain
Clouds: Overcast
Visibility: 9 miles , 14 km
Cloud details: Partly cloudy 4700 ft
Overcast 5500 ft
2014/10/23 02:53 KBFI 230253Z 15006KT 9SM -RA SCT047 OVC055 14/11 A2957 RMK AO2 SLP012 P0003 60009 T01440111 55016